PBD239 UUWW-USNN
Flight info
| Callsign | PBD239 |
|---|---|
| Flight time | 3h 5m |
| Altitude | 35000 |
| Route | N0450F350 RILPO T753 AGBIR T783 BALOB N155 NIPRA T631 ZORKI L870 ULGUN M59 TETSI |
| Aircraft | B738/M-VGDW/C |
Departure
| Time | 2026-04-21 03:29 |
|---|---|
| Airport | Vnukovo International Airport (UUWW) |
Arrival
| Time | 2026-04-21 06:34 |
|---|---|
| Airport | Nizhnevartovsk Airport (USNN) |
| Time | Latitude | Longitude | Altitude | Speed | Heading |
|---|---|---|---|---|---|
| 2026-04-21 03:05 | 55.60010 | 37.28285 | 695 ft | 0 kts | 356° |
| 2026-04-21 03:21 | 55.60017 | 37.28284 | 694 ft | 3 kts | 356° |
| 2026-04-21 03:21 | 55.60052 | 37.28276 | 694 ft | 7 kts | 340° |
| 2026-04-21 03:21 | 55.60075 | 37.28189 | 694 ft | 10 kts | 269° |
| 2026-04-21 03:22 | 55.60083 | 37.28039 | 694 ft | 14 kts | 289° |
| 2026-04-21 03:22 | 55.60102 | 37.27873 | 694 ft | 15 kts | 235° |
| 2026-04-21 03:22 | 55.60020 | 37.27740 | 694 ft | 17 kts | 215° |
| 2026-04-21 03:22 | 55.59938 | 37.27570 | 694 ft | 19 kts | 234° |
| 2026-04-21 03:23 | 55.59845 | 37.27396 | 694 ft | 20 kts | 226° |
| 2026-04-21 03:23 | 55.59746 | 37.27209 | 694 ft | 22 kts | 227° |
| 2026-04-21 03:23 | 55.59645 | 37.27011 | 694 ft | 22 kts | 229° |
| 2026-04-21 03:23 | 55.59545 | 37.26818 | 694 ft | 21 kts | 235° |
| 2026-04-21 03:24 | 55.59486 | 37.26590 | 694 ft | 20 kts | 249° |
| 2026-04-21 03:24 | 55.59437 | 37.26363 | 694 ft | 19 kts | 247° |
| 2026-04-21 03:24 | 55.59387 | 37.26145 | 694 ft | 19 kts | 248° |
| 2026-04-21 03:24 | 55.59336 | 37.25931 | 694 ft | 19 kts | 245° |
| 2026-04-21 03:25 | 55.59290 | 37.25722 | 694 ft | 18 kts | 249° |
| 2026-04-21 03:25 | 55.59244 | 37.25514 | 694 ft | 18 kts | 249° |
| 2026-04-21 03:25 | 55.59200 | 37.25313 | 694 ft | 17 kts | 248° |
| 2026-04-21 03:25 | 55.59154 | 37.25107 | 694 ft | 18 kts | 249° |
| 2026-04-21 03:26 | 55.59106 | 37.24890 | 694 ft | 20 kts | 249° |
| 2026-04-21 03:26 | 55.59055 | 37.24665 | 694 ft | 20 kts | 248° |
| 2026-04-21 03:26 | 55.59000 | 37.24440 | 694 ft | 20 kts | 245° |
| 2026-04-21 03:26 | 55.58936 | 37.24214 | 694 ft | 21 kts | 244° |
| 2026-04-21 03:27 | 55.58876 | 37.24004 | 694 ft | 19 kts | 242° |
| 2026-04-21 03:27 | 55.58816 | 37.23821 | 694 ft | 16 kts | 225° |
| 2026-04-21 03:27 | 55.58711 | 37.23848 | 694 ft | 14 kts | 156° |
| 2026-04-21 03:27 | 55.58670 | 37.23985 | 694 ft | 12 kts | 69° |
| 2026-04-21 03:28 | 55.58675 | 37.24007 | 694 ft | 5 kts | 68° |
| 2026-04-21 03:28 | 55.58727 | 37.24240 | 694 ft | 42 kts | 68° |
| 2026-04-21 03:28 | 55.58917 | 37.25065 | 694 ft | 102 kts | 63° |
| 2026-04-21 03:28 | 55.59243 | 37.26511 | 696 ft | 151 kts | 65° |
| 2026-04-21 03:29 | 55.59647 | 37.28390 | 1067 ft | 168 kts | 67° |
| 2026-04-21 03:29 | 55.60049 | 37.30391 | 1644 ft | 177 kts | 66° |
| 2026-04-21 03:29 | 55.60501 | 37.32385 | 1995 ft | 178 kts | 64° |
| 2026-04-21 03:29 | 55.60974 | 37.34422 | 2041 ft | 178 kts | 64° |
| 2026-04-21 03:30 | 55.61444 | 37.36454 | 2085 ft | 180 kts | 64° |
| 2026-04-21 03:30 | 55.61892 | 37.38519 | 2706 ft | 174 kts | 72° |
| 2026-04-21 03:30 | 55.61791 | 37.40616 | 3485 ft | 179 kts | 107° |
| 2026-04-21 03:30 | 55.61080 | 37.42509 | 3974 ft | 193 kts | 124° |
| 2026-04-21 03:31 | 55.60121 | 37.44356 | 4268 ft | 214 kts | 128° |
| 2026-04-21 03:31 | 55.58911 | 37.46113 | 4509 ft | 239 kts | 148° |
| 2026-04-21 03:31 | 55.57229 | 37.46861 | 4760 ft | 262 kts | 177° |
| 2026-04-21 03:31 | 55.55454 | 37.46018 | 5229 ft | 271 kts | 212° |
| 2026-04-21 03:32 | 55.54041 | 37.43888 | 5868 ft | 272 kts | 229° |
| 2026-04-21 03:32 | 55.52792 | 37.41350 | 6520 ft | 276 kts | 231° |
| 2026-04-21 03:32 | 55.51441 | 37.38875 | 6888 ft | 283 kts | 226° |
| 2026-04-21 03:32 | 55.50091 | 37.36359 | 7553 ft | 279 kts | 238° |
| 2026-04-21 03:33 | 55.49334 | 37.33279 | 8208 ft | 273 kts | 263° |
| 2026-04-21 03:33 | 55.49341 | 37.30021 | 8783 ft | 270 kts | 283° |
| 2026-04-21 03:33 | 55.49920 | 37.26881 | 9268 ft | 270 kts | 305° |
| 2026-04-21 03:33 | 55.51156 | 37.24423 | 9847 ft | 268 kts | 324° |
| 2026-04-21 03:34 | 55.52646 | 37.22402 | 10406 ft | 273 kts | 328° |
| 2026-04-21 03:34 | 55.54222 | 37.20482 | 11022 ft | 278 kts | 326° |
| 2026-04-21 03:34 | 55.55702 | 37.18202 | 11622 ft | 285 kts | 321° |
| 2026-04-21 03:34 | 55.57124 | 37.15719 | 12214 ft | 291 kts | 319° |
| 2026-04-21 03:35 | 55.58542 | 37.13123 | 12861 ft | 294 kts | 319° |
| 2026-04-21 03:35 | 55.59953 | 37.10536 | 13507 ft | 297 kts | 319° |
| 2026-04-21 03:35 | 55.61398 | 37.07890 | 14157 ft | 300 kts | 319° |
| 2026-04-21 03:35 | 55.62867 | 37.05223 | 14794 ft | 303 kts | 320° |
| 2026-04-21 03:36 | 55.64508 | 37.02901 | 15414 ft | 302 kts | 331° |
| 2026-04-21 03:36 | 55.66346 | 37.01102 | 16033 ft | 303 kts | 338° |
| 2026-04-21 03:36 | 55.68286 | 36.99605 | 16619 ft | 306 kts | 341° |
| 2026-04-21 03:36 | 55.70272 | 36.98190 | 17218 ft | 309 kts | 341° |
| 2026-04-21 03:37 | 55.72272 | 36.96743 | 17804 ft | 313 kts | 341° |
| 2026-04-21 03:37 | 55.74300 | 36.95262 | 18379 ft | 316 kts | 340° |
| 2026-04-21 03:37 | 55.76333 | 36.93704 | 18962 ft | 319 kts | 340° |
| 2026-04-21 03:37 | 55.78383 | 36.92129 | 19534 ft | 322 kts | 340° |
| 2026-04-21 03:38 | 55.80469 | 36.90652 | 20104 ft | 323 kts | 346° |
| 2026-04-21 03:38 | 55.82633 | 36.89824 | 20630 ft | 323 kts | 356° |
| 2026-04-21 03:38 | 55.84916 | 36.89579 | 20912 ft | 334 kts | 2° |
| 2026-04-21 03:38 | 55.87279 | 36.89651 | 21127 ft | 346 kts | 4° |
| 2026-04-21 03:39 | 55.89716 | 36.89815 | 21541 ft | 352 kts | 4° |
| 2026-04-21 03:39 | 55.92172 | 36.89941 | 22041 ft | 355 kts | 4° |
| 2026-04-21 03:39 | 55.94654 | 36.90050 | 22544 ft | 358 kts | 4° |
| 2026-04-21 03:39 | 55.97149 | 36.90294 | 23049 ft | 358 kts | 10° |
| 2026-04-21 03:40 | 55.99556 | 36.91395 | 23513 ft | 358 kts | 22° |
| 2026-04-21 03:40 | 56.01783 | 36.93275 | 23999 ft | 359 kts | 29° |
| 2026-04-21 03:40 | 56.03966 | 36.95493 | 24463 ft | 361 kts | 33° |
| 2026-04-21 03:40 | 56.06075 | 36.97968 | 24905 ft | 364 kts | 34° |
| 2026-04-21 03:41 | 56.08189 | 37.00483 | 25337 ft | 366 kts | 34° |
| 2026-04-21 03:41 | 56.10323 | 37.03014 | 25774 ft | 368 kts | 36° |
| 2026-04-21 03:41 | 56.12343 | 37.05847 | 26201 ft | 370 kts | 41° |
| 2026-04-21 03:41 | 56.14233 | 37.08994 | 26599 ft | 372 kts | 44° |
| 2026-04-21 03:42 | 56.16057 | 37.12312 | 27010 ft | 374 kts | 46° |
| 2026-04-21 03:42 | 56.17874 | 37.15677 | 27402 ft | 376 kts | 46° |
| 2026-04-21 03:42 | 56.19685 | 37.19014 | 27765 ft | 378 kts | 45° |
| 2026-04-21 03:42 | 56.21532 | 37.22409 | 28125 ft | 381 kts | 45° |
| 2026-04-21 03:43 | 56.23433 | 37.25751 | 28477 ft | 383 kts | 41° |
| 2026-04-21 03:43 | 56.25572 | 37.28636 | 28843 ft | 385 kts | 33° |
| 2026-04-21 03:43 | 56.27896 | 37.31040 | 29183 ft | 387 kts | 29° |
| 2026-04-21 03:43 | 56.30325 | 37.33195 | 29503 ft | 390 kts | 25° |
| 2026-04-21 03:44 | 56.32797 | 37.35104 | 29821 ft | 392 kts | 24° |
| 2026-04-21 03:44 | 56.35315 | 37.37044 | 30126 ft | 394 kts | 24° |
| 2026-04-21 03:44 | 56.37767 | 37.39290 | 30395 ft | 396 kts | 32° |
| 2026-04-21 03:44 | 56.40035 | 37.42143 | 30647 ft | 399 kts | 39° |
| 2026-04-21 03:45 | 56.42168 | 37.45405 | 30922 ft | 401 kts | 42° |
| 2026-04-21 03:45 | 56.43529 | 37.47684 | 31068 ft | 403 kts | 44° |
| 2026-04-21 03:45 | 56.46166 | 37.52460 | 31416 ft | 406 kts | 46° |
| 2026-04-21 03:45 | 56.48148 | 37.56140 | 31630 ft | 409 kts | 45° |
| 2026-04-21 03:46 | 56.50144 | 37.59846 | 31887 ft | 411 kts | 45° |
| 2026-04-21 03:46 | 56.51466 | 37.62301 | 32047 ft | 413 kts | 46° |
| 2026-04-21 03:46 | 56.53490 | 37.66060 | 32254 ft | 416 kts | 46° |
| 2026-04-21 03:46 | 56.55511 | 37.69819 | 32491 ft | 418 kts | 46° |
| 2026-04-21 03:47 | 56.57543 | 37.73602 | 32695 ft | 420 kts | 46° |
| 2026-04-21 03:47 | 56.59590 | 37.77412 | 32854 ft | 424 kts | 46° |
| 2026-04-21 03:47 | 56.63734 | 37.85125 | 32874 ft | 427 kts | 45° |
| 2026-04-21 03:48 | 56.68043 | 37.92685 | 32878 ft | 433 kts | 44° |
| 2026-04-21 03:48 | 56.72358 | 38.00288 | 32885 ft | 434 kts | 44° |
| 2026-04-21 03:49 | 56.76678 | 38.08016 | 32887 ft | 434 kts | 45° |
| 2026-04-21 03:49 | 56.80949 | 38.15716 | 32889 ft | 434 kts | 45° |
| 2026-04-21 03:50 | 56.85243 | 38.23471 | 32890 ft | 434 kts | 45° |
| 2026-04-21 03:50 | 56.89639 | 38.31072 | 32893 ft | 434 kts | 41° |
| 2026-04-21 03:51 | 56.94236 | 38.38174 | 32895 ft | 434 kts | 40° |
| 2026-04-21 03:51 | 56.96545 | 38.41759 | 33001 ft | 436 kts | 40° |
| 2026-04-21 03:51 | 56.98855 | 38.45378 | 33267 ft | 436 kts | 40° |
| 2026-04-21 03:52 | 57.01159 | 38.49003 | 33595 ft | 435 kts | 41° |
| 2026-04-21 03:52 | 57.03451 | 38.52626 | 33863 ft | 435 kts | 41° |
| 2026-04-21 03:52 | 57.05747 | 38.56264 | 34098 ft | 436 kts | 41° |
| 2026-04-21 03:52 | 57.08046 | 38.59917 | 34371 ft | 436 kts | 41° |
| 2026-04-21 03:53 | 57.10344 | 38.63573 | 34568 ft | 437 kts | 41° |
| 2026-04-21 03:53 | 57.12643 | 38.67238 | 34811 ft | 437 kts | 41° |
| 2026-04-21 03:53 | 57.17318 | 38.74557 | 34861 ft | 443 kts | 40° |
| 2026-04-21 03:54 | 57.21986 | 38.81956 | 34860 ft | 441 kts | 41° |
| 2026-04-21 03:54 | 57.26613 | 38.89273 | 34859 ft | 440 kts | 40° |
| 2026-04-21 03:55 | 57.31256 | 38.96699 | 34857 ft | 441 kts | 41° |
| 2026-04-21 03:55 | 57.35886 | 39.04198 | 34856 ft | 442 kts | 41° |
| 2026-04-21 03:56 | 57.40510 | 39.11724 | 34855 ft | 442 kts | 41° |
| 2026-04-21 03:56 | 57.45094 | 39.19201 | 34854 ft | 442 kts | 41° |
| 2026-04-21 03:57 | 57.49720 | 39.26755 | 34852 ft | 443 kts | 41° |
| 2026-04-21 03:57 | 57.54356 | 39.34318 | 34851 ft | 443 kts | 41° |
| 2026-04-21 03:58 | 57.58980 | 39.41905 | 34850 ft | 443 kts | 41° |
| 2026-04-21 03:58 | 57.63614 | 39.49512 | 34849 ft | 444 kts | 40° |
| 2026-04-21 03:59 | 57.68262 | 39.56994 | 34848 ft | 444 kts | 41° |
| 2026-04-21 04:00 | 57.75205 | 39.68494 | 34846 ft | 444 kts | 41° |
| 2026-04-21 04:00 | 57.79826 | 39.76206 | 34845 ft | 445 kts | 41° |
| 2026-04-21 04:01 | 57.84422 | 39.83891 | 34842 ft | 445 kts | 41° |
| 2026-04-21 04:01 | 57.89033 | 39.91640 | 34844 ft | 445 kts | 41° |
| 2026-04-21 04:02 | 57.93642 | 39.99433 | 34843 ft | 445 kts | 41° |
| 2026-04-21 04:02 | 57.98249 | 40.07141 | 34843 ft | 445 kts | 41° |
| 2026-04-21 04:03 | 58.02842 | 40.14985 | 34841 ft | 445 kts | 42° |
| 2026-04-21 04:03 | 58.07427 | 40.22870 | 34842 ft | 445 kts | 42° |
| 2026-04-21 04:04 | 58.11997 | 40.30755 | 34842 ft | 444 kts | 42° |
| 2026-04-21 04:04 | 58.16341 | 40.39077 | 34842 ft | 445 kts | 50° |
| 2026-04-21 04:05 | 58.19845 | 40.48666 | 34841 ft | 445 kts | 58° |
| 2026-04-21 04:05 | 58.22980 | 40.58803 | 34840 ft | 445 kts | 59° |
| 2026-04-21 04:06 | 58.26091 | 40.68960 | 34838 ft | 445 kts | 59° |
| 2026-04-21 04:06 | 58.29204 | 40.79141 | 34823 ft | 445 kts | 59° |
| 2026-04-21 04:07 | 58.32288 | 40.89262 | 34808 ft | 444 kts | 59° |
| 2026-04-21 04:07 | 58.35420 | 40.99436 | 34802 ft | 444 kts | 58° |
| 2026-04-21 04:08 | 58.38587 | 41.09545 | 34801 ft | 444 kts | 59° |
| 2026-04-21 04:08 | 58.41709 | 41.19720 | 34801 ft | 444 kts | 59° |
| 2026-04-21 04:09 | 58.44813 | 41.29937 | 34800 ft | 445 kts | 59° |
| 2026-04-21 04:09 | 58.47905 | 41.40180 | 34800 ft | 445 kts | 59° |
| 2026-04-21 04:10 | 58.50987 | 41.50446 | 34800 ft | 445 kts | 60° |
| 2026-04-21 04:10 | 58.54040 | 41.60660 | 34800 ft | 445 kts | 60° |
| 2026-04-21 04:11 | 58.57123 | 41.71021 | 34800 ft | 445 kts | 60° |
| 2026-04-21 04:11 | 58.60156 | 41.81263 | 34801 ft | 445 kts | 60° |
| 2026-04-21 04:12 | 58.63236 | 41.91565 | 34796 ft | 445 kts | 59° |
| 2026-04-21 04:12 | 58.66306 | 42.01905 | 34788 ft | 445 kts | 60° |
| 2026-04-21 04:13 | 58.69312 | 42.12257 | 34789 ft | 447 kts | 60° |
| 2026-04-21 04:13 | 58.72330 | 42.22722 | 34791 ft | 446 kts | 60° |
| 2026-04-21 04:14 | 58.75335 | 42.33167 | 34792 ft | 445 kts | 60° |
| 2026-04-21 04:14 | 58.78339 | 42.43623 | 34793 ft | 445 kts | 60° |
| 2026-04-21 04:15 | 58.81338 | 42.54085 | 34795 ft | 445 kts | 61° |
| 2026-04-21 04:15 | 58.84320 | 42.64578 | 34797 ft | 445 kts | 61° |
| 2026-04-21 04:16 | 58.87271 | 42.75027 | 34798 ft | 445 kts | 61° |
| 2026-04-21 04:16 | 58.90238 | 42.85579 | 34801 ft | 445 kts | 61° |
| 2026-04-21 04:17 | 58.93190 | 42.96127 | 34803 ft | 446 kts | 61° |
| 2026-04-21 04:17 | 58.96205 | 43.06661 | 34805 ft | 446 kts | 60° |
| 2026-04-21 04:18 | 58.99213 | 43.17187 | 34807 ft | 446 kts | 61° |
| 2026-04-21 04:18 | 59.02166 | 43.27710 | 34810 ft | 446 kts | 61° |
| 2026-04-21 04:19 | 59.05121 | 43.38333 | 34813 ft | 447 kts | 61° |
| 2026-04-21 04:19 | 59.08070 | 43.49001 | 34815 ft | 447 kts | 62° |
| 2026-04-21 04:20 | 59.11011 | 43.59686 | 34818 ft | 447 kts | 61° |
| 2026-04-21 04:20 | 59.13988 | 43.70289 | 34821 ft | 447 kts | 62° |
| 2026-04-21 04:21 | 59.16902 | 43.81012 | 34822 ft | 448 kts | 62° |
| 2026-04-21 04:21 | 59.19781 | 43.91728 | 34774 ft | 449 kts | 62° |
| 2026-04-21 04:22 | 59.22666 | 44.02512 | 34748 ft | 448 kts | 62° |
| 2026-04-21 04:22 | 59.25567 | 44.13360 | 34739 ft | 450 kts | 63° |
| 2026-04-21 04:23 | 59.28053 | 44.24601 | 34741 ft | 451 kts | 69° |
| 2026-04-21 04:23 | 59.30204 | 44.36142 | 34743 ft | 450 kts | 69° |
| 2026-04-21 04:24 | 59.32358 | 44.47575 | 34745 ft | 451 kts | 69° |
| 2026-04-21 04:24 | 59.34543 | 44.59100 | 34748 ft | 450 kts | 69° |
| 2026-04-21 04:25 | 59.36728 | 44.70635 | 34751 ft | 451 kts | 69° |
| 2026-04-21 04:25 | 59.38923 | 44.82105 | 34753 ft | 451 kts | 68° |
| 2026-04-21 04:26 | 59.41210 | 44.93580 | 34756 ft | 451 kts | 68° |
| 2026-04-21 04:26 | 59.43450 | 45.05106 | 34759 ft | 452 kts | 69° |
| 2026-04-21 04:27 | 59.45596 | 45.16668 | 34762 ft | 452 kts | 70° |
| 2026-04-21 04:27 | 59.47737 | 45.28316 | 34765 ft | 452 kts | 70° |
| 2026-04-21 04:28 | 59.49871 | 45.39966 | 34769 ft | 452 kts | 70° |
| 2026-04-21 04:28 | 59.52009 | 45.51633 | 34772 ft | 453 kts | 69° |
| 2026-04-21 04:29 | 59.54289 | 45.63205 | 34776 ft | 453 kts | 68° |
| 2026-04-21 04:29 | 59.56552 | 45.74731 | 34780 ft | 454 kts | 69° |
| 2026-04-21 04:30 | 59.58808 | 45.86350 | 34784 ft | 453 kts | 69° |
| 2026-04-21 04:30 | 59.61050 | 45.97987 | 34791 ft | 454 kts | 69° |
| 2026-04-21 04:31 | 59.63297 | 46.09727 | 35042 ft | 459 kts | 69° |
| 2026-04-21 04:31 | 59.64439 | 46.15622 | 35308 ft | 458 kts | 68° |
| 2026-04-21 04:31 | 59.65623 | 46.21479 | 35549 ft | 458 kts | 68° |
| 2026-04-21 04:31 | 59.66786 | 46.27356 | 35787 ft | 458 kts | 68° |
| 2026-04-21 04:32 | 59.67931 | 46.33248 | 36020 ft | 458 kts | 69° |
| 2026-04-21 04:32 | 59.69051 | 46.39069 | 36243 ft | 458 kts | 69° |
| 2026-04-21 04:32 | 59.70178 | 46.44971 | 36481 ft | 458 kts | 69° |
| 2026-04-21 04:32 | 59.71302 | 46.50889 | 36701 ft | 458 kts | 69° |
| 2026-04-21 04:33 | 59.72441 | 46.56791 | 36796 ft | 460 kts | 68° |
| 2026-04-21 04:33 | 59.74354 | 46.66632 | 36809 ft | 460 kts | 69° |
| 2026-04-21 04:34 | 59.76566 | 46.78524 | 36818 ft | 459 kts | 70° |
| 2026-04-21 04:34 | 59.79111 | 46.92387 | 36826 ft | 459 kts | 70° |
| 2026-04-21 04:35 | 59.80925 | 47.02313 | 36831 ft | 460 kts | 70° |
| 2026-04-21 04:35 | 59.83112 | 47.14279 | 36836 ft | 460 kts | 70° |
| 2026-04-21 04:36 | 59.85292 | 47.26256 | 36841 ft | 460 kts | 69° |
| 2026-04-21 04:36 | 59.87542 | 47.38211 | 36844 ft | 461 kts | 70° |
| 2026-04-21 04:37 | 59.89684 | 47.50167 | 36835 ft | 461 kts | 70° |
| 2026-04-21 04:37 | 59.91815 | 47.62226 | 36839 ft | 461 kts | 70° |
| 2026-04-21 04:38 | 59.93939 | 47.74296 | 36845 ft | 461 kts | 70° |
| 2026-04-21 04:38 | 59.96065 | 47.86390 | 36850 ft | 462 kts | 70° |
| 2026-04-21 04:39 | 59.98198 | 47.98504 | 36856 ft | 462 kts | 70° |
| 2026-04-21 04:39 | 60.00297 | 48.10559 | 36862 ft | 462 kts | 71° |
| 2026-04-21 04:40 | 60.02395 | 48.22704 | 36867 ft | 462 kts | 71° |
| 2026-04-21 04:40 | 60.04483 | 48.34859 | 36872 ft | 462 kts | 71° |
| 2026-04-21 04:41 | 60.06561 | 48.47025 | 36878 ft | 462 kts | 71° |
| 2026-04-21 04:41 | 60.08692 | 48.59077 | 36884 ft | 462 kts | 70° |
| 2026-04-21 04:42 | 60.10888 | 48.71193 | 36889 ft | 463 kts | 70° |
| 2026-04-21 04:42 | 60.12967 | 48.83437 | 36895 ft | 464 kts | 71° |
| 2026-04-21 04:43 | 60.15007 | 48.95716 | 36901 ft | 464 kts | 71° |
| 2026-04-21 04:43 | 60.17037 | 49.08020 | 36906 ft | 464 kts | 71° |
| 2026-04-21 04:44 | 60.19072 | 49.20361 | 36911 ft | 465 kts | 71° |
| 2026-04-21 04:44 | 60.21002 | 49.32709 | 36926 ft | 465 kts | 73° |
| 2026-04-21 04:45 | 60.22844 | 49.45212 | 36936 ft | 466 kts | 73° |
| 2026-04-21 04:45 | 60.24685 | 49.57758 | 36941 ft | 467 kts | 73° |
| 2026-04-21 04:46 | 60.26506 | 49.70240 | 36944 ft | 467 kts | 73° |
| 2026-04-21 04:46 | 60.28330 | 49.82822 | 36948 ft | 467 kts | 74° |
| 2026-04-21 04:47 | 60.30203 | 49.95420 | 36951 ft | 468 kts | 72° |
| 2026-04-21 04:47 | 60.32096 | 50.07901 | 36954 ft | 468 kts | 73° |
| 2026-04-21 04:48 | 60.33939 | 50.20499 | 36957 ft | 468 kts | 73° |
| 2026-04-21 04:48 | 60.35754 | 50.33121 | 36960 ft | 468 kts | 74° |
| 2026-04-21 04:49 | 60.37556 | 50.45780 | 36962 ft | 468 kts | 74° |
| 2026-04-21 04:49 | 60.39389 | 50.58323 | 36964 ft | 468 kts | 73° |
| 2026-04-21 04:50 | 60.41185 | 50.71019 | 36967 ft | 469 kts | 74° |
| 2026-04-21 04:50 | 60.42927 | 50.83759 | 36968 ft | 469 kts | 75° |
| 2026-04-21 04:51 | 60.44654 | 50.96499 | 36969 ft | 469 kts | 75° |
| 2026-04-21 04:51 | 60.46383 | 51.09266 | 36970 ft | 470 kts | 75° |
| 2026-04-21 04:52 | 60.48141 | 51.21944 | 36971 ft | 470 kts | 74° |
| 2026-04-21 04:52 | 60.49893 | 51.34740 | 36973 ft | 471 kts | 75° |
| 2026-04-21 04:53 | 60.51597 | 51.47594 | 36973 ft | 471 kts | 75° |
| 2026-04-21 04:53 | 60.53292 | 51.60466 | 36974 ft | 472 kts | 75° |
| 2026-04-21 04:54 | 60.54973 | 51.73248 | 36974 ft | 472 kts | 75° |
| 2026-04-21 04:54 | 60.56647 | 51.86152 | 36974 ft | 472 kts | 76° |
| 2026-04-21 04:55 | 60.58300 | 51.99079 | 36972 ft | 472 kts | 76° |
| 2026-04-21 04:55 | 60.59944 | 52.12070 | 36968 ft | 474 kts | 76° |
| 2026-04-21 04:56 | 60.61578 | 52.25092 | 36967 ft | 474 kts | 76° |
| 2026-04-21 04:56 | 60.63194 | 52.38033 | 36965 ft | 474 kts | 75° |
| 2026-04-21 04:57 | 60.64927 | 52.51000 | 36964 ft | 474 kts | 75° |
| 2026-04-21 04:57 | 60.66593 | 52.64040 | 36962 ft | 474 kts | 76° |
| 2026-04-21 04:58 | 60.68217 | 52.77073 | 36959 ft | 474 kts | 76° |
| 2026-04-21 04:58 | 60.69826 | 52.90163 | 36957 ft | 474 kts | 76° |
| 2026-04-21 04:59 | 60.71455 | 53.03143 | 36954 ft | 475 kts | 75° |
| 2026-04-21 04:59 | 60.73070 | 53.16264 | 36952 ft | 475 kts | 77° |
| 2026-04-21 05:00 | 60.74613 | 53.29404 | 36949 ft | 475 kts | 77° |
| 2026-04-21 05:00 | 60.76903 | 53.49152 | 36944 ft | 476 kts | 77° |
| 2026-04-21 05:01 | 60.78431 | 53.62356 | 36941 ft | 476 kts | 77° |
| 2026-04-21 05:01 | 60.79991 | 53.75443 | 36938 ft | 476 kts | 77° |
| 2026-04-21 05:02 | 60.81543 | 53.88636 | 36935 ft | 476 kts | 77° |
| 2026-04-21 05:02 | 60.83072 | 54.01833 | 36932 ft | 476 kts | 77° |
| 2026-04-21 05:03 | 60.84582 | 54.15028 | 36929 ft | 478 kts | 77° |
| 2026-04-21 05:03 | 60.86087 | 54.28339 | 36926 ft | 478 kts | 77° |
| 2026-04-21 05:04 | 60.87696 | 54.41576 | 36923 ft | 478 kts | 76° |
| 2026-04-21 05:04 | 60.89272 | 54.54764 | 36919 ft | 478 kts | 77° |
| 2026-04-21 05:05 | 60.90806 | 54.68081 | 36917 ft | 479 kts | 77° |
| 2026-04-21 05:05 | 60.92312 | 54.81416 | 36914 ft | 479 kts | 77° |
| 2026-04-21 05:06 | 60.93802 | 54.94785 | 36911 ft | 479 kts | 77° |
| 2026-04-21 05:06 | 60.95275 | 55.08153 | 36908 ft | 479 kts | 77° |
| 2026-04-21 05:07 | 60.96726 | 55.21456 | 36906 ft | 479 kts | 78° |
| 2026-04-21 05:07 | 60.98172 | 55.34859 | 36903 ft | 480 kts | 78° |
| 2026-04-21 05:08 | 60.99608 | 55.48298 | 36900 ft | 479 kts | 78° |
| 2026-04-21 05:08 | 61.01030 | 55.61743 | 36898 ft | 479 kts | 78° |
| 2026-04-21 05:09 | 61.02428 | 55.75102 | 36895 ft | 480 kts | 78° |
| 2026-04-21 05:09 | 61.03827 | 55.88617 | 36894 ft | 481 kts | 78° |
| 2026-04-21 05:10 | 61.05212 | 56.02128 | 36898 ft | 480 kts | 78° |
| 2026-04-21 05:10 | 61.06583 | 56.15650 | 36900 ft | 481 kts | 78° |
| 2026-04-21 05:11 | 61.07941 | 56.29188 | 36901 ft | 481 kts | 78° |
| 2026-04-21 05:11 | 61.09276 | 56.42642 | 36908 ft | 481 kts | 79° |
| 2026-04-21 05:12 | 61.10613 | 56.56220 | 36907 ft | 481 kts | 78° |
| 2026-04-21 05:12 | 61.12014 | 56.69800 | 36907 ft | 482 kts | 79° |
| 2026-04-21 05:13 | 61.13295 | 56.83340 | 36906 ft | 482 kts | 79° |
| 2026-04-21 05:13 | 61.14557 | 56.96974 | 36905 ft | 482 kts | 79° |
| 2026-04-21 05:14 | 61.15812 | 57.10617 | 36905 ft | 482 kts | 79° |
| 2026-04-21 05:14 | 61.17181 | 57.24236 | 36903 ft | 483 kts | 75° |
| 2026-04-21 05:15 | 61.19108 | 57.37507 | 36903 ft | 483 kts | 72° |
| 2026-04-21 05:15 | 61.21113 | 57.50821 | 36903 ft | 482 kts | 72° |
| 2026-04-21 05:16 | 61.23060 | 57.64150 | 36903 ft | 482 kts | 73° |
| 2026-04-21 05:16 | 61.24978 | 57.77515 | 36904 ft | 483 kts | 73° |
| 2026-04-21 05:17 | 61.26884 | 57.90896 | 36903 ft | 482 kts | 72° |
| 2026-04-21 05:17 | 61.28896 | 58.04115 | 36904 ft | 484 kts | 72° |
| 2026-04-21 05:18 | 61.30858 | 58.17529 | 36906 ft | 484 kts | 73° |
| 2026-04-21 05:18 | 61.32777 | 58.30973 | 36905 ft | 484 kts | 73° |
| 2026-04-21 05:19 | 61.34675 | 58.44451 | 36906 ft | 484 kts | 73° |
| 2026-04-21 05:19 | 61.36544 | 58.57859 | 36907 ft | 484 kts | 73° |
| 2026-04-21 05:20 | 61.38410 | 58.71372 | 36908 ft | 485 kts | 73° |
| 2026-04-21 05:20 | 61.40264 | 58.84910 | 36909 ft | 485 kts | 73° |
| 2026-04-21 05:21 | 61.42105 | 58.98467 | 36910 ft | 486 kts | 73° |
| 2026-04-21 05:21 | 61.43928 | 59.12008 | 36911 ft | 485 kts | 74° |
| 2026-04-21 05:22 | 61.45438 | 59.23308 | 36912 ft | 485 kts | 74° |
| 2026-04-21 05:22 | 61.47263 | 59.36905 | 36913 ft | 485 kts | 73° |
| 2026-04-21 05:23 | 61.49116 | 59.50523 | 36915 ft | 486 kts | 74° |
| 2026-04-21 05:23 | 61.50874 | 59.64211 | 36916 ft | 486 kts | 74° |
| 2026-04-21 05:24 | 61.52613 | 59.77928 | 36918 ft | 486 kts | 74° |
| 2026-04-21 05:24 | 61.54266 | 59.91582 | 36918 ft | 486 kts | 79° |
| 2026-04-21 05:25 | 61.54798 | 60.05705 | 36920 ft | 487 kts | 92° |
| 2026-04-21 05:25 | 61.54096 | 60.19879 | 36921 ft | 487 kts | 99° |
| 2026-04-21 05:26 | 61.53156 | 60.33865 | 36921 ft | 488 kts | 98° |
| 2026-04-21 05:26 | 61.52243 | 60.48003 | 36922 ft | 488 kts | 98° |
| 2026-04-21 05:27 | 61.51487 | 60.62078 | 36922 ft | 488 kts | 97° |
| 2026-04-21 05:27 | 61.50614 | 60.76206 | 36923 ft | 489 kts | 98° |
| 2026-04-21 05:28 | 61.49667 | 60.90335 | 36946 ft | 488 kts | 99° |
| 2026-04-21 05:28 | 61.48712 | 61.04419 | 36981 ft | 489 kts | 99° |
| 2026-04-21 05:29 | 61.47754 | 61.18536 | 36997 ft | 490 kts | 99° |
| 2026-04-21 05:29 | 61.46790 | 61.32551 | 37002 ft | 490 kts | 99° |
| 2026-04-21 05:30 | 61.45794 | 61.46661 | 37002 ft | 491 kts | 99° |
| 2026-04-21 05:30 | 61.44779 | 61.60813 | 37002 ft | 491 kts | 99° |
| 2026-04-21 05:31 | 61.43761 | 61.74826 | 37002 ft | 491 kts | 99° |
| 2026-04-21 05:31 | 61.42724 | 61.88952 | 37002 ft | 491 kts | 99° |
| 2026-04-21 05:32 | 61.41809 | 62.03079 | 37001 ft | 491 kts | 97° |
| 2026-04-21 05:32 | 61.40879 | 62.17255 | 37002 ft | 493 kts | 99° |
| 2026-04-21 05:33 | 61.39801 | 62.31316 | 37002 ft | 493 kts | 100° |
| 2026-04-21 05:33 | 61.38697 | 62.45435 | 37002 ft | 493 kts | 100° |
| 2026-04-21 05:34 | 61.37587 | 62.59551 | 37002 ft | 493 kts | 100° |
| 2026-04-21 05:34 | 61.36460 | 62.73680 | 37002 ft | 494 kts | 100° |
| 2026-04-21 05:35 | 61.35351 | 62.87825 | 37002 ft | 495 kts | 100° |
| 2026-04-21 05:35 | 61.34235 | 63.01897 | 37002 ft | 494 kts | 99° |
| 2026-04-21 05:36 | 61.33220 | 63.16091 | 37002 ft | 494 kts | 100° |
| 2026-04-21 05:36 | 61.32053 | 63.30242 | 37002 ft | 496 kts | 101° |
| 2026-04-21 05:37 | 61.30866 | 63.44309 | 37002 ft | 496 kts | 101° |
| 2026-04-21 05:37 | 61.29667 | 63.58451 | 37002 ft | 495 kts | 101° |
| 2026-04-21 05:38 | 61.28725 | 63.72653 | 37002 ft | 496 kts | 95° |
| 2026-04-21 05:38 | 61.28358 | 63.86988 | 37002 ft | 496 kts | 92° |
| 2026-04-21 05:39 | 61.28085 | 64.01246 | 37003 ft | 496 kts | 93° |
| 2026-04-21 05:39 | 61.27618 | 64.15634 | 37004 ft | 499 kts | 94° |
| 2026-04-21 05:40 | 61.27124 | 64.30043 | 37004 ft | 499 kts | 94° |
| 2026-04-21 05:40 | 61.26628 | 64.44352 | 37004 ft | 499 kts | 94° |
| 2026-04-21 05:41 | 61.26132 | 64.58748 | 37005 ft | 499 kts | 94° |
| 2026-04-21 05:41 | 61.25614 | 64.73153 | 37005 ft | 500 kts | 94° |
| 2026-04-21 05:42 | 61.25070 | 64.87577 | 36997 ft | 499 kts | 94° |
| 2026-04-21 05:42 | 61.24507 | 65.01985 | 36996 ft | 500 kts | 94° |
| 2026-04-21 05:43 | 61.23928 | 65.16297 | 37051 ft | 500 kts | 95° |
| 2026-04-21 05:43 | 61.23390 | 65.30691 | 37144 ft | 500 kts | 93° |
| 2026-04-21 05:44 | 61.22925 | 65.45151 | 37194 ft | 502 kts | 94° |
| 2026-04-21 05:44 | 61.22378 | 65.59604 | 37217 ft | 501 kts | 94° |
| 2026-04-21 05:45 | 61.21799 | 65.73935 | 37230 ft | 501 kts | 94° |
| 2026-04-21 05:45 | 61.21193 | 65.88345 | 37237 ft | 501 kts | 95° |
| 2026-04-21 05:46 | 61.20568 | 66.02760 | 37241 ft | 501 kts | 95° |
| 2026-04-21 05:46 | 61.19926 | 66.17194 | 37245 ft | 502 kts | 95° |
| 2026-04-21 05:47 | 61.19273 | 66.31536 | 37248 ft | 502 kts | 95° |
| 2026-04-21 05:47 | 61.18601 | 66.45945 | 37252 ft | 502 kts | 95° |
| 2026-04-21 05:48 | 61.17913 | 66.60365 | 37255 ft | 502 kts | 95° |
| 2026-04-21 05:48 | 61.17208 | 66.74812 | 37264 ft | 503 kts | 95° |
| 2026-04-21 05:49 | 61.16488 | 66.89242 | 37269 ft | 503 kts | 95° |
| 2026-04-21 05:49 | 61.15754 | 67.03656 | 37271 ft | 503 kts | 95° |
| 2026-04-21 05:50 | 61.15008 | 67.17978 | 37274 ft | 504 kts | 96° |
| 2026-04-21 05:50 | 61.14240 | 67.32438 | 37275 ft | 504 kts | 96° |
| 2026-04-21 05:51 | 61.13458 | 67.46876 | 37278 ft | 504 kts | 96° |
| 2026-04-21 05:51 | 61.12709 | 67.61323 | 37279 ft | 504 kts | 95° |
| 2026-04-21 05:52 | 61.11936 | 67.75656 | 37281 ft | 504 kts | 96° |
| 2026-04-21 05:52 | 61.11078 | 67.90062 | 37282 ft | 504 kts | 96° |
| 2026-04-21 05:53 | 61.10203 | 68.04473 | 37284 ft | 504 kts | 96° |
| 2026-04-21 05:53 | 61.09324 | 68.18926 | 37285 ft | 506 kts | 96° |
| 2026-04-21 05:54 | 61.08430 | 68.33277 | 37286 ft | 506 kts | 97° |
| 2026-04-21 05:54 | 61.07512 | 68.47713 | 37287 ft | 506 kts | 96° |
| 2026-04-21 05:55 | 61.06705 | 68.62169 | 37288 ft | 506 kts | 97° |
| 2026-04-21 05:55 | 61.05756 | 68.76599 | 37289 ft | 507 kts | 97° |
| 2026-04-21 05:56 | 61.04786 | 68.90918 | 37289 ft | 507 kts | 97° |
| 2026-04-21 05:56 | 61.03886 | 69.05353 | 37288 ft | 506 kts | 93° |
| 2026-04-21 05:57 | 61.04118 | 69.19840 | 37289 ft | 505 kts | 80° |
| 2026-04-21 05:57 | 61.05543 | 69.33986 | 37289 ft | 501 kts | 73° |
| 2026-04-21 05:58 | 61.07239 | 69.47860 | 37289 ft | 501 kts | 73° |
| 2026-04-21 05:58 | 61.08800 | 69.61943 | 37289 ft | 502 kts | 75° |
| 2026-04-21 05:59 | 61.10283 | 69.76046 | 37288 ft | 502 kts | 75° |
| 2026-04-21 06:00 | 61.12497 | 69.97241 | 37289 ft | 502 kts | 75° |
| 2026-04-21 06:00 | 61.13931 | 70.11366 | 37289 ft | 502 kts | 76° |
| 2026-04-21 06:01 | 61.15290 | 70.25571 | 37289 ft | 502 kts | 76° |
| 2026-04-21 06:01 | 61.16748 | 70.39610 | 37289 ft | 502 kts | 75° |
| 2026-04-21 06:02 | 61.18109 | 70.53865 | 37289 ft | 503 kts | 76° |
| 2026-04-21 06:02 | 61.19426 | 70.68129 | 37289 ft | 503 kts | 76° |
| 2026-04-21 06:03 | 61.20732 | 70.82395 | 37289 ft | 503 kts | 76° |
| 2026-04-21 06:03 | 61.22026 | 70.96586 | 37289 ft | 503 kts | 77° |
| 2026-04-21 06:04 | 61.23258 | 71.10895 | 37289 ft | 503 kts | 77° |
| 2026-04-21 06:04 | 61.24472 | 71.25219 | 37289 ft | 503 kts | 77° |
| 2026-04-21 06:05 | 61.25672 | 71.39536 | 37289 ft | 502 kts | 77° |
| 2026-04-21 06:05 | 61.27000 | 71.53611 | 37288 ft | 496 kts | 76° |
| 2026-04-21 06:06 | 61.28195 | 71.67771 | 37093 ft | 500 kts | 77° |
| 2026-04-21 06:06 | 61.28768 | 71.74899 | 36738 ft | 498 kts | 77° |
| 2026-04-21 06:06 | 61.29336 | 71.82012 | 36083 ft | 498 kts | 77° |
| 2026-04-21 06:06 | 61.29900 | 71.89110 | 35526 ft | 497 kts | 77° |
| 2026-04-21 06:07 | 61.30273 | 71.93807 | 35206 ft | 495 kts | 77° |
| 2026-04-21 06:07 | 61.30833 | 72.00855 | 34730 ft | 491 kts | 77° |
| 2026-04-21 06:07 | 61.31388 | 72.07846 | 34259 ft | 488 kts | 77° |
| 2026-04-21 06:07 | 61.31990 | 72.14767 | 33794 ft | 484 kts | 74° |
| 2026-04-21 06:08 | 61.32707 | 72.21606 | 33334 ft | 481 kts | 73° |
| 2026-04-21 06:08 | 61.33383 | 72.28420 | 32877 ft | 479 kts | 75° |
| 2026-04-21 06:08 | 61.34013 | 72.35227 | 32424 ft | 477 kts | 75° |
| 2026-04-21 06:08 | 61.34624 | 72.41995 | 31975 ft | 474 kts | 75° |
| 2026-04-21 06:09 | 61.35219 | 72.48665 | 31535 ft | 472 kts | 75° |
| 2026-04-21 06:09 | 61.35814 | 72.55369 | 31092 ft | 470 kts | 75° |
| 2026-04-21 06:09 | 61.36405 | 72.62058 | 30646 ft | 468 kts | 75° |
| 2026-04-21 06:09 | 61.36994 | 72.68715 | 30207 ft | 466 kts | 74° |
| 2026-04-21 06:10 | 61.37583 | 72.75357 | 29782 ft | 464 kts | 74° |
| 2026-04-21 06:10 | 61.38167 | 72.81981 | 29354 ft | 462 kts | 75° |
| 2026-04-21 06:10 | 61.38740 | 72.88561 | 28923 ft | 460 kts | 75° |
| 2026-04-21 06:10 | 61.39305 | 72.95136 | 28491 ft | 458 kts | 75° |
| 2026-04-21 06:11 | 61.39862 | 73.01672 | 28061 ft | 455 kts | 75° |
| 2026-04-21 06:11 | 61.40405 | 73.08080 | 27637 ft | 453 kts | 75° |
| 2026-04-21 06:11 | 61.40949 | 73.14548 | 27206 ft | 451 kts | 75° |
| 2026-04-21 06:11 | 61.41487 | 73.20976 | 26777 ft | 448 kts | 75° |
| 2026-04-21 06:12 | 61.42021 | 73.27389 | 26347 ft | 445 kts | 75° |
| 2026-04-21 06:12 | 61.42550 | 73.33763 | 25919 ft | 443 kts | 75° |
| 2026-04-21 06:12 | 61.43071 | 73.40079 | 25491 ft | 440 kts | 76° |
| 2026-04-21 06:12 | 61.43587 | 73.46368 | 25064 ft | 438 kts | 75° |
| 2026-04-21 06:13 | 61.44129 | 73.52607 | 24639 ft | 434 kts | 74° |
| 2026-04-21 06:13 | 61.44696 | 73.58716 | 24220 ft | 431 kts | 74° |
| 2026-04-21 06:13 | 61.45294 | 73.64834 | 23798 ft | 428 kts | 73° |
| 2026-04-21 06:13 | 61.45844 | 73.70946 | 23375 ft | 426 kts | 75° |
| 2026-04-21 06:14 | 61.46340 | 73.77023 | 22956 ft | 423 kts | 76° |
| 2026-04-21 06:14 | 61.46819 | 73.83076 | 22538 ft | 420 kts | 76° |
| 2026-04-21 06:14 | 61.47291 | 73.89109 | 22120 ft | 417 kts | 76° |
| 2026-04-21 06:14 | 61.47755 | 73.95070 | 21707 ft | 414 kts | 76° |
| 2026-04-21 06:15 | 61.48213 | 74.00988 | 21296 ft | 410 kts | 76° |
| 2026-04-21 06:15 | 61.48661 | 74.06797 | 20890 ft | 407 kts | 76° |
| 2026-04-21 06:15 | 61.49112 | 74.12644 | 20479 ft | 404 kts | 76° |
| 2026-04-21 06:15 | 61.49512 | 74.18438 | 20066 ft | 403 kts | 82° |
| 2026-04-21 06:16 | 61.49428 | 74.24305 | 19658 ft | 404 kts | 95° |
| 2026-04-21 06:16 | 61.48762 | 74.30019 | 19226 ft | 403 kts | 107° |
| 2026-04-21 06:16 | 61.47735 | 74.35456 | 18819 ft | 401 kts | 114° |
| 2026-04-21 06:16 | 61.46501 | 74.40668 | 18415 ft | 398 kts | 117° |
| 2026-04-21 06:17 | 61.45196 | 74.45748 | 18014 ft | 395 kts | 118° |
| 2026-04-21 06:17 | 61.43920 | 74.50809 | 17614 ft | 392 kts | 117° |
| 2026-04-21 06:17 | 61.42692 | 74.55869 | 17218 ft | 389 kts | 116° |
| 2026-04-21 06:17 | 61.41527 | 74.60947 | 16826 ft | 386 kts | 115° |
| 2026-04-21 06:18 | 61.40349 | 74.65958 | 16437 ft | 383 kts | 116° |
| 2026-04-21 06:18 | 61.39175 | 74.70856 | 16053 ft | 380 kts | 116° |
| 2026-04-21 06:18 | 61.37988 | 74.75753 | 15669 ft | 377 kts | 117° |
| 2026-04-21 06:18 | 61.36808 | 74.80599 | 15288 ft | 373 kts | 117° |
| 2026-04-21 06:19 | 61.35631 | 74.85417 | 14907 ft | 370 kts | 117° |
| 2026-04-21 06:19 | 61.34463 | 74.90180 | 14530 ft | 367 kts | 117° |
| 2026-04-21 06:19 | 61.33306 | 74.94889 | 14157 ft | 363 kts | 117° |
| 2026-04-21 06:19 | 61.32161 | 74.99557 | 13785 ft | 360 kts | 117° |
| 2026-04-21 06:20 | 61.31024 | 75.04177 | 13417 ft | 356 kts | 116° |
| 2026-04-21 06:20 | 61.29902 | 75.08746 | 13053 ft | 353 kts | 117° |
| 2026-04-21 06:20 | 61.28787 | 75.13275 | 12694 ft | 350 kts | 116° |
| 2026-04-21 06:20 | 61.27706 | 75.17767 | 12343 ft | 346 kts | 116° |
| 2026-04-21 06:21 | 61.26626 | 75.22147 | 12000 ft | 342 kts | 117° |
| 2026-04-21 06:21 | 61.25530 | 75.26516 | 11652 ft | 339 kts | 117° |
| 2026-04-21 06:21 | 61.24441 | 75.30834 | 11303 ft | 335 kts | 117° |
| 2026-04-21 06:21 | 61.23359 | 75.35089 | 10956 ft | 332 kts | 117° |
| 2026-04-21 06:22 | 61.22284 | 75.39301 | 10612 ft | 328 kts | 117° |
| 2026-04-21 06:22 | 61.21221 | 75.43463 | 10392 ft | 321 kts | 117° |
| 2026-04-21 06:22 | 61.20193 | 75.47480 | 10315 ft | 309 kts | 117° |
| 2026-04-21 06:22 | 61.19207 | 75.51327 | 10302 ft | 296 kts | 117° |
| 2026-04-21 06:23 | 61.18264 | 75.55005 | 10275 ft | 283 kts | 117° |
| 2026-04-21 06:23 | 61.17365 | 75.58512 | 10126 ft | 277 kts | 116° |
| 2026-04-21 06:23 | 61.16462 | 75.62017 | 9892 ft | 273 kts | 118° |
| 2026-04-21 06:23 | 61.15342 | 75.65184 | 9618 ft | 273 kts | 132° |
| 2026-04-21 06:24 | 61.13927 | 75.67790 | 9354 ft | 271 kts | 140° |
| 2026-04-21 06:24 | 61.12429 | 75.70163 | 9085 ft | 270 kts | 142° |
| 2026-04-21 06:24 | 61.10908 | 75.72420 | 8817 ft | 268 kts | 143° |
| 2026-04-21 06:24 | 61.09392 | 75.74644 | 8534 ft | 266 kts | 143° |
| 2026-04-21 06:25 | 61.07883 | 75.76854 | 8250 ft | 265 kts | 143° |
| 2026-04-21 06:25 | 61.06380 | 75.79053 | 7965 ft | 263 kts | 143° |
| 2026-04-21 06:25 | 61.04909 | 75.81202 | 7689 ft | 262 kts | 143° |
| 2026-04-21 06:25 | 61.03423 | 75.83370 | 7405 ft | 260 kts | 143° |
| 2026-04-21 06:26 | 61.01945 | 75.85524 | 7119 ft | 259 kts | 143° |
| 2026-04-21 06:26 | 61.00467 | 75.87676 | 6839 ft | 258 kts | 143° |
| 2026-04-21 06:26 | 60.99006 | 75.89803 | 6560 ft | 256 kts | 142° |
| 2026-04-21 06:26 | 60.97550 | 75.91919 | 6282 ft | 255 kts | 142° |
| 2026-04-21 06:27 | 60.96106 | 75.94017 | 5999 ft | 253 kts | 142° |
| 2026-04-21 06:27 | 60.94706 | 75.96051 | 5560 ft | 247 kts | 142° |
| 2026-04-21 06:27 | 60.93298 | 75.98092 | 4967 ft | 247 kts | 142° |
| 2026-04-21 06:27 | 60.91901 | 76.00118 | 4424 ft | 245 kts | 142° |
| 2026-04-21 06:28 | 60.90519 | 76.02121 | 3946 ft | 240 kts | 142° |
| 2026-04-21 06:28 | 60.89189 | 76.04048 | 3687 ft | 226 kts | 142° |
| 2026-04-21 06:28 | 60.88022 | 76.06003 | 3478 ft | 207 kts | 128° |
| 2026-04-21 06:28 | 60.87291 | 76.08388 | 3262 ft | 192 kts | 111° |
| 2026-04-21 06:29 | 60.86848 | 76.10952 | 2845 ft | 190 kts | 104° |
| 2026-04-21 06:29 | 60.86521 | 76.13495 | 2586 ft | 177 kts | 101° |
| 2026-04-21 06:29 | 60.86222 | 76.15929 | 2357 ft | 175 kts | 102° |
| 2026-04-21 06:29 | 60.85919 | 76.18312 | 2121 ft | 170 kts | 102° |
| 2026-04-21 06:30 | 60.85623 | 76.20575 | 1972 ft | 164 kts | 103° |
| 2026-04-21 06:30 | 60.85330 | 76.22802 | 1906 ft | 160 kts | 102° |
| 2026-04-21 06:30 | 60.85040 | 76.24996 | 1869 ft | 158 kts | 102° |
| 2026-04-21 06:30 | 60.84765 | 76.27118 | 1832 ft | 152 kts | 100° |
| 2026-04-21 06:31 | 60.84901 | 76.29219 | 1765 ft | 154 kts | 59° |
| 2026-04-21 06:31 | 60.85593 | 76.30848 | 1829 ft | 149 kts | 46° |
| 2026-04-21 06:31 | 60.86345 | 76.32259 | 1817 ft | 147 kts | 43° |
| 2026-04-21 06:31 | 60.87106 | 76.33643 | 1808 ft | 145 kts | 43° |
| 2026-04-21 06:32 | 60.87848 | 76.35012 | 1797 ft | 141 kts | 43° |
| 2026-04-21 06:32 | 60.88563 | 76.36337 | 1592 ft | 136 kts | 43° |
| 2026-04-21 06:32 | 60.89261 | 76.37636 | 1400 ft | 136 kts | 43° |
| 2026-04-21 06:32 | 60.89974 | 76.38961 | 1234 ft | 141 kts | 43° |
| 2026-04-21 06:33 | 60.90697 | 76.40308 | 1043 ft | 139 kts | 43° |
| 2026-04-21 06:33 | 60.91397 | 76.41613 | 852 ft | 133 kts | 43° |
| 2026-04-21 06:33 | 60.92075 | 76.42877 | 666 ft | 129 kts | 43° |
| 2026-04-21 06:33 | 60.92734 | 76.44106 | 506 ft | 127 kts | 43° |
| 2026-04-21 06:34 | 60.93395 | 76.45339 | 348 ft | 130 kts | 43° |
| 2026-04-21 06:34 | 60.94070 | 76.46592 | 200 ft | 130 kts | 43° |
| 2026-04-21 06:34 | 60.94686 | 76.47746 | 186 ft | 98 kts | 41° |
| 2026-04-21 06:34 | 60.95012 | 76.48352 | 186 ft | 48 kts | 41° |
| 2026-04-21 06:35 | 60.95206 | 76.48716 | 185 ft | 28 kts | 41° |
| 2026-04-21 06:35 | 60.95309 | 76.48911 | 185 ft | 17 kts | 43° |
| 2026-04-21 06:35 | 60.95358 | 76.49073 | 185 ft | 13 kts | 113° |
| 2026-04-21 06:35 | 60.95300 | 76.49217 | 185 ft | 14 kts | 132° |
| 2026-04-21 06:36 | 60.95225 | 76.49251 | 185 ft | 10 kts | 163° |
| 2026-04-21 06:36 | 60.95196 | 76.49294 | 185 ft | 6 kts | 134° |
| 2026-04-21 06:36 | 60.95190 | 76.49308 | 185 ft | 0 kts | 133° |